createdAt,value
2023-03-27T00:00:27.354Z,0.28
2023-03-27T00:03:16.633Z,1.23
2023-03-27T00:06:07.878Z,0.45
2023-03-27T00:09:01.478Z,0.60
2023-03-27T00:11:50.333Z,0.40
2023-03-27T00:14:39.460Z,0.45
2023-03-27T00:17:31.302Z,25.02
2023-03-27T00:20:22.841Z,2.35
2023-03-27T00:23:11.522Z,0.75
2023-03-27T00:26:04.329Z,0.30
2023-03-27T00:28:53.580Z,0.35
2023-03-27T00:31:42.294Z,0.30
2023-03-27T00:34:32.223Z,0.45
2023-03-27T00:37:21.682Z,0.20
2023-03-27T00:40:16.351Z,0.98
2023-03-27T00:43:20.467Z,0.90
2023-03-27T00:46:27.579Z,0.65
2023-03-27T00:49:16.519Z,0.45
2023-03-27T00:52:08.557Z,0.85
2023-03-27T00:54:59.381Z,1.65
2023-03-27T00:57:52.876Z,0.10
2023-03-27T01:00:42.489Z,0.20
2023-03-27T01:03:33.339Z,0.40
2023-03-27T01:06:22.699Z,0.52
2023-03-27T01:09:20.434Z,0.22
2023-03-27T01:12:20.966Z,1.20
2023-03-27T01:15:21.961Z,3.05
2023-03-27T01:18:19.666Z,0.10
2023-03-27T01:21:37.228Z,1.92
2023-03-27T01:24:55.614Z,0.10
2023-03-27T01:28:02.853Z,4.97
2023-03-27T01:30:56.192Z,0.20
2023-03-27T01:34:06.108Z,0.20
2023-03-27T01:37:21.798Z,0.20
2023-03-27T01:40:14.844Z,0.38
2023-03-27T01:43:05.854Z,0.63
2023-03-27T01:45:57.317Z,0.10
2023-03-27T01:48:48.224Z,0.20
2023-03-27T01:51:38.672Z,0.20
2023-03-27T01:54:30.862Z,0.45
2023-03-27T01:57:23.310Z,0.10
2023-03-27T02:00:19.414Z,3.22
2023-03-27T02:03:11.651Z,1.85
2023-03-27T02:06:03.238Z,0.22
2023-03-27T02:08:57.015Z,0.55
2023-03-27T02:11:48.932Z,0.45
2023-03-27T02:14:40.691Z,0.20
2023-03-27T02:17:33.995Z,0.10
2023-03-27T02:20:24.096Z,0.98
2023-03-27T02:23:12.988Z,1.10
2023-03-27T02:26:02.656Z,0.80
2023-03-27T02:29:01.636Z,0.30
2023-03-27T02:32:01.516Z,0.10
2023-03-27T02:35:05.488Z,0.00
2023-03-27T02:38:01.214Z,1.45
2023-03-27T02:40:57.908Z,1.65
2023-03-27T02:43:52.262Z,0.10
2023-03-27T02:46:45.077Z,0.10
2023-03-27T02:49:38.673Z,0.20
2023-03-27T02:52:30.351Z,0.13
2023-03-27T02:55:21.370Z,0.10
2023-03-27T02:58:16.412Z,0.08
2023-03-27T03:01:09.287Z,0.00
2023-03-27T03:04:00.592Z,1.08
2023-03-27T03:06:50.585Z,0.47
2023-03-27T03:09:40.582Z,0.32
2023-03-27T03:12:29.950Z,1.65
2023-03-27T03:15:19.242Z,0.38
2023-03-27T03:18:09.152Z,0.32
2023-03-27T03:20:58.046Z,1.85
2023-03-27T03:23:58.159Z,0.10
2023-03-27T03:26:50.108Z,0.10
2023-03-27T03:29:38.780Z,0.08
2023-03-27T03:32:27.609Z,0.73
2023-03-27T03:35:16.382Z,0.38
2023-03-27T03:38:06.474Z,2.30
2023-03-27T03:40:57.882Z,0.10
2023-03-27T03:43:46.585Z,3.83
2023-03-27T03:46:35.543Z,0.30
2023-03-27T03:49:24.189Z,2.75
2023-03-27T03:52:13.012Z,1.88
2023-03-27T03:55:01.675Z,2.00
2023-03-27T03:57:51.588Z,2.95
2023-03-27T04:00:41.014Z,9.43
2023-03-27T04:03:32.445Z,7.85
2023-03-27T04:06:21.717Z,15.77
2023-03-27T04:09:11.320Z,18.10
2023-03-27T04:11:59.976Z,19.63
2023-03-27T04:14:49.950Z,11.98
2023-03-27T04:17:38.923Z,8.02
2023-03-27T04:20:27.800Z,13.70
2023-03-27T04:23:18.526Z,11.65
2023-03-27T04:26:07.904Z,13.00
2023-03-27T04:28:57.817Z,8.02
2023-03-27T04:31:47.863Z,8.15
2023-03-27T04:34:40.388Z,8.65
2023-03-27T04:37:29.166Z,7.63
2023-03-27T04:40:19.109Z,5.18
2023-03-27T04:43:09.011Z,4.90
2023-03-27T04:45:57.826Z,2.90
2023-03-27T04:48:48.180Z,4.93
2023-03-27T04:51:37.254Z,8.32
2023-03-27T04:54:26.630Z,6.55
2023-03-27T04:57:19.330Z,7.32
2023-03-27T05:00:16.334Z,5.75
2023-03-27T05:03:05.778Z,3.15
2023-03-27T05:05:56.187Z,2.58
2023-03-27T05:08:44.813Z,5.35
2023-03-27T05:11:33.821Z,1.98
2023-03-27T05:14:24.142Z,6.28
2023-03-27T05:17:13.018Z,2.95
2023-03-27T05:20:01.843Z,4.28
2023-03-27T05:22:54.299Z,2.60
2023-03-27T05:25:42.905Z,2.05
2023-03-27T05:28:31.484Z,3.72
2023-03-27T05:31:20.289Z,3.30
2023-03-27T05:34:08.939Z,2.95
2023-03-27T05:36:57.870Z,3.90
2023-03-27T05:39:51.256Z,5.43
2023-03-27T05:42:44.903Z,2.50
2023-03-27T05:45:33.968Z,2.65
2023-03-27T05:48:22.817Z,2.97
2023-03-27T05:51:12.733Z,1.88
2023-03-27T05:54:04.714Z,3.20
2023-03-27T05:56:54.701Z,2.35
2023-03-27T05:59:43.398Z,3.75
2023-03-27T06:02:31.997Z,3.25
2023-03-27T06:05:21.419Z,1.40
2023-03-27T06:08:12.219Z,2.88
2023-03-27T06:11:01.244Z,3.67
2023-03-27T06:13:52.084Z,1.67
2023-03-27T06:16:40.834Z,2.17
2023-03-27T06:19:29.408Z,1.35
2023-03-27T06:22:17.968Z,2.00
2023-03-27T06:25:07.843Z,1.75
2023-03-27T06:27:56.491Z,2.20
2023-03-27T06:30:46.524Z,3.42
2023-03-27T06:33:35.221Z,4.40
2023-03-27T06:36:25.009Z,4.25
2023-03-27T06:39:14.269Z,4.15
2023-03-27T06:42:03.711Z,2.28
2023-03-27T06:44:52.559Z,5.80
2023-03-27T06:47:53.919Z,2.47
2023-03-27T06:50:44.855Z,3.13
2023-03-27T06:53:37.367Z,4.35
2023-03-27T06:56:26.883Z,3.05
2023-03-27T06:59:15.545Z,2.17
2023-03-27T07:02:06.200Z,2.42
2023-03-27T07:05:04.374Z,4.38
2023-03-27T07:08:22.602Z,1.00
2023-03-27T07:11:17.364Z,3.97
2023-03-27T07:14:06.712Z,0.80
2023-03-27T07:16:56.680Z,2.72
2023-03-27T07:19:46.258Z,1.52
2023-03-27T07:22:36.203Z,1.88
2023-03-27T07:25:25.429Z,2.05
2023-03-27T07:28:16.751Z,3.83
2023-03-27T07:31:16.746Z,2.50
2023-03-27T07:34:18.421Z,1.48
2023-03-27T07:37:07.066Z,1.63
2023-03-27T07:39:57.292Z,1.83
2023-03-27T07:42:48.019Z,1.45
2023-03-27T07:45:37.476Z,4.88
2023-03-27T07:48:26.127Z,5.13
2023-03-27T07:51:15.204Z,1.05
2023-03-27T07:54:05.119Z,1.55
2023-03-27T07:56:55.546Z,3.40
2023-03-27T07:59:45.408Z,2.40
2023-03-27T08:02:34.103Z,0.85
2023-03-27T08:05:22.903Z,0.65
2023-03-27T08:08:12.300Z,1.17
2023-03-27T08:11:04.953Z,0.60
2023-03-27T08:13:55.380Z,0.57
2023-03-27T08:16:44.432Z,1.00
2023-03-27T08:19:33.880Z,2.10
2023-03-27T08:22:23.130Z,4.18
2023-03-27T08:25:12.931Z,0.80
2023-03-27T08:28:02.676Z,0.40
2023-03-27T08:30:52.825Z,0.60
2023-03-27T08:33:51.400Z,3.92
2023-03-27T08:36:42.261Z,0.63
2023-03-27T08:39:31.179Z,1.67
2023-03-27T08:42:23.349Z,0.73
2023-03-27T08:45:18.164Z,0.93
2023-03-27T08:48:13.072Z,0.50
2023-03-27T08:51:05.598Z,1.45
2023-03-27T08:53:58.503Z,0.40
2023-03-27T08:56:48.271Z,0.43
2023-03-27T08:59:36.942Z,0.57
2023-03-27T09:02:33.029Z,1.00
2023-03-27T09:05:25.203Z,0.47
2023-03-27T09:08:20.224Z,2.08
2023-03-27T09:11:15.332Z,0.40
2023-03-27T09:14:08.769Z,3.25
2023-03-27T09:16:58.408Z,0.70
2023-03-27T09:19:50.302Z,0.20
2023-03-27T09:22:44.176Z,0.40
2023-03-27T09:25:37.002Z,0.30
2023-03-27T09:28:29.084Z,1.85
2023-03-27T09:31:22.279Z,0.20
2023-03-27T09:34:14.631Z,0.60
2023-03-27T09:37:05.384Z,0.10
2023-03-27T09:39:55.900Z,0.35
2023-03-27T09:42:44.668Z,0.85
2023-03-27T09:45:33.586Z,3.30
2023-03-27T09:48:29.096Z,0.35
2023-03-27T09:51:38.938Z,0.40
2023-03-27T09:54:29.809Z,1.75
2023-03-27T09:57:20.258Z,1.13
2023-03-27T10:00:15.560Z,2.60
2023-03-27T10:03:08.124Z,1.10
2023-03-27T10:06:06.942Z,0.30
2023-03-27T10:08:56.815Z,0.22
2023-03-27T10:11:45.526Z,0.68
2023-03-27T10:14:37.628Z,1.30
2023-03-27T10:17:27.726Z,1.05
2023-03-27T10:20:18.743Z,3.83
2023-03-27T10:23:10.306Z,14.55
2023-03-27T10:26:01.852Z,64.70
2023-03-27T10:28:51.517Z,84.13
2023-03-27T10:31:51.220Z,149.35
2023-03-27T10:34:43.405Z,189.73
2023-03-27T10:37:34.471Z,238.85
2023-03-27T10:40:26.553Z,267.27
2023-03-27T10:43:20.058Z,270.00
2023-03-27T10:46:12.727Z,269.52
2023-03-27T10:49:16.190Z,264.85
2023-03-27T10:52:18.486Z,265.63
2023-03-27T10:55:21.173Z,257.52
2023-03-27T10:58:23.975Z,257.65
2023-03-27T11:01:16.472Z,230.48
2023-03-27T11:04:09.148Z,241.13
2023-03-27T11:06:59.127Z,223.50
2023-03-27T11:09:56.130Z,223.43
2023-03-27T11:12:52.293Z,217.95
2023-03-27T11:15:43.340Z,200.02
2023-03-27T11:18:36.531Z,212.40
2023-03-27T11:21:31.276Z,206.00
2023-03-27T11:24:27.115Z,194.27
2023-03-27T11:27:20.646Z,183.43
2023-03-27T11:30:35.557Z,179.98
2023-03-27T11:33:35.522Z,193.98
2023-03-27T11:36:37.729Z,168.23
2023-03-27T11:39:32.055Z,162.45
2023-03-27T11:42:24.304Z,169.18
2023-03-27T11:45:15.014Z,155.25
2023-03-27T11:48:29.918Z,136.48
2023-03-27T11:51:23.849Z,139.77
2023-03-27T11:54:35.322Z,137.95
2023-03-27T11:57:26.423Z,137.10
2023-03-27T12:00:21.736Z,126.53
2023-03-27T12:03:33.747Z,116.60
2023-03-27T12:06:26.950Z,130.07
2023-03-27T12:09:29.406Z,122.68
2023-03-27T12:12:35.382Z,101.55
2023-03-27T12:15:40.486Z,103.70
2023-03-27T12:18:36.553Z,103.10
2023-03-27T12:21:41.363Z,92.30
2023-03-27T12:24:36.136Z,96.13
2023-03-27T12:27:32.724Z,88.25
2023-03-27T12:30:28.316Z,87.72
2023-03-27T12:33:33.339Z,81.07
2023-03-27T12:36:24.274Z,84.68
2023-03-27T12:39:16.560Z,71.28
2023-03-27T12:42:16.031Z,72.40
2023-03-27T12:45:15.358Z,72.85
2023-03-27T12:48:17.552Z,67.18
2023-03-27T12:51:13.640Z,69.38
2023-03-27T12:54:14.701Z,62.10
2023-03-27T12:57:06.007Z,62.10
2023-03-27T12:59:59.059Z,59.08
2023-03-27T13:03:24.778Z,52.92
2023-03-27T13:06:30.088Z,56.03
2023-03-27T13:09:42.345Z,55.72
2023-03-27T13:12:47.296Z,47.15
2023-03-27T13:16:05.220Z,44.83
2023-03-27T13:19:06.940Z,42.78
2023-03-27T13:22:10.688Z,41.28
2023-03-27T13:25:17.384Z,48.00
2023-03-27T13:28:27.264Z,43.38
2023-03-27T13:31:56.142Z,37.75
2023-03-27T13:35:04.996Z,35.53
2023-03-27T13:37:59.152Z,33.10
2023-03-27T13:40:49.736Z,10.20
2023-03-27T13:43:39.280Z,3.30
2023-03-27T13:46:30.888Z,9.43
2023-03-27T13:49:32.880Z,6.68
2023-03-27T13:53:06.275Z,8.98
2023-03-27T13:56:22.420Z,6.45
2023-03-27T13:59:53.410Z,5.13
2023-03-27T14:03:14.893Z,4.32
2023-03-27T14:06:42.243Z,4.18
2023-03-27T14:09:42.337Z,7.75
2023-03-27T14:12:39.063Z,8.00
2023-03-27T14:15:38.837Z,6.05
2023-03-27T14:19:08.697Z,4.63
2023-03-27T14:22:00.492Z,3.17
2023-03-27T14:24:53.789Z,3.22
2023-03-27T14:27:45.419Z,3.42
2023-03-27T14:30:45.026Z,4.90
2023-03-27T14:33:34.552Z,1.80
2023-03-27T14:36:29.978Z,7.90
2023-03-27T14:39:22.645Z,1.88
2023-03-27T14:42:16.923Z,1.73
2023-03-27T14:45:20.595Z,0.80
2023-03-27T14:48:11.834Z,6.43
2023-03-27T14:51:02.973Z,3.10
2023-03-27T14:53:56.105Z,1.08
2023-03-27T14:56:47.812Z,1.40
2023-03-27T14:59:38.386Z,2.67
2023-03-27T15:02:30.576Z,1.63
2023-03-27T15:05:22.278Z,5.38
2023-03-27T15:08:13.844Z,6.22
2023-03-27T15:11:05.012Z,4.75
2023-03-27T15:13:54.009Z,4.13
2023-03-27T15:16:43.080Z,6.30
2023-03-27T15:19:34.975Z,1.80
2023-03-27T15:22:27.647Z,2.40
2023-03-27T15:25:19.536Z,7.85
2023-03-27T15:28:16.060Z,1.30
2023-03-27T15:31:06.236Z,2.08
2023-03-27T15:34:02.216Z,0.43
2023-03-27T15:36:56.592Z,1.63
2023-03-27T15:40:02.299Z,10.07
2023-03-27T15:42:55.598Z,0.40
2023-03-27T15:45:58.811Z,1.83
2023-03-27T15:48:55.251Z,0.57
2023-03-27T15:51:43.910Z,0.68
2023-03-27T15:54:34.756Z,0.20
2023-03-27T15:57:25.970Z,0.93
2023-03-27T16:00:16.213Z,1.30
2023-03-27T16:03:10.912Z,2.72
2023-03-27T16:06:01.457Z,1.85
2023-03-27T16:08:52.292Z,1.23
2023-03-27T16:11:46.019Z,0.98
2023-03-27T16:14:48.016Z,0.50
2023-03-27T16:17:41.853Z,0.57
2023-03-27T16:20:48.226Z,0.40
2023-03-27T16:23:38.644Z,0.68
2023-03-27T16:26:28.179Z,0.77
2023-03-27T16:29:17.774Z,0.35
2023-03-27T16:32:06.998Z,1.58
2023-03-27T16:34:55.640Z,0.40
2023-03-27T16:37:45.678Z,0.70
2023-03-27T16:40:34.307Z,2.40
2023-03-27T16:43:22.927Z,0.20
2023-03-27T16:46:18.867Z,2.30
2023-03-27T16:49:09.056Z,0.30
2023-03-27T16:51:57.651Z,0.65
2023-03-27T16:54:48.801Z,0.47
2023-03-27T16:57:37.565Z,0.55
2023-03-27T17:00:27.232Z,1.33
2023-03-27T17:03:16.277Z,0.20
2023-03-27T17:06:08.842Z,0.77
2023-03-27T17:08:57.474Z,0.40
2023-03-27T17:11:47.648Z,0.20
2023-03-27T17:14:36.514Z,2.28
2023-03-27T17:17:27.351Z,2.83
2023-03-27T17:20:16.375Z,0.13
2023-03-27T17:23:05.380Z,4.45
2023-03-27T17:25:54.039Z,0.75
2023-03-27T17:28:44.040Z,1.10
2023-03-27T17:31:33.373Z,0.22
2023-03-27T17:34:22.236Z,0.63
2023-03-27T17:37:13.811Z,2.75
2023-03-27T17:40:04.734Z,0.20
2023-03-27T17:42:53.344Z,0.35
2023-03-27T17:45:43.953Z,2.35
2023-03-27T17:48:34.528Z,4.07
2023-03-27T17:51:23.185Z,0.85
2023-03-27T17:54:12.314Z,0.40
2023-03-27T17:57:01.046Z,0.22
2023-03-27T17:59:49.781Z,0.10
2023-03-27T18:02:41.250Z,0.13
2023-03-27T18:05:30.303Z,1.25
2023-03-27T18:08:19.959Z,1.00
2023-03-27T18:11:10.264Z,0.90
2023-03-27T18:13:59.076Z,0.35
2023-03-27T18:16:48.068Z,0.20
2023-03-27T18:19:38.254Z,0.17
2023-03-27T18:22:26.873Z,0.40
2023-03-27T18:25:15.578Z,1.30
2023-03-27T18:28:04.744Z,0.22
2023-03-27T18:31:00.430Z,0.10
2023-03-27T18:33:49.227Z,1.38
2023-03-27T18:36:39.431Z,0.73
2023-03-27T18:39:28.233Z,0.45
2023-03-27T18:42:16.964Z,0.73
2023-03-27T18:45:07.413Z,0.10
2023-03-27T18:47:56.137Z,0.00
2023-03-27T18:50:44.736Z,0.63
2023-03-27T18:53:34.969Z,0.20
2023-03-27T18:56:23.785Z,0.10
2023-03-27T18:59:12.431Z,0.10
2023-03-27T19:02:01.297Z,3.17
2023-03-27T19:04:49.920Z,0.20
2023-03-27T19:07:44.402Z,0.03
2023-03-27T19:10:37.526Z,1.85
2023-03-27T19:13:27.463Z,0.10
2023-03-27T19:16:16.006Z,0.73
2023-03-27T19:19:04.767Z,0.30
2023-03-27T19:21:53.990Z,0.73
2023-03-27T19:24:43.222Z,1.75
2023-03-27T19:27:38.991Z,0.32
2023-03-27T19:30:28.257Z,0.10
2023-03-27T19:33:16.883Z,1.20
2023-03-27T19:36:07.557Z,0.20
2023-03-27T19:38:58.667Z,0.10
2023-03-27T19:41:50.905Z,0.38
2023-03-27T19:44:41.676Z,0.20
2023-03-27T19:47:30.495Z,0.30
2023-03-27T19:50:19.374Z,2.08
2023-03-27T19:53:09.386Z,0.47
2023-03-27T19:55:59.566Z,3.63
2023-03-27T19:58:48.492Z,0.25
2023-03-27T20:01:38.573Z,1.48
2023-03-27T20:04:27.203Z,0.10
2023-03-27T20:07:15.898Z,2.42
2023-03-27T20:10:05.059Z,2.92
2023-03-27T20:12:56.379Z,4.20
2023-03-27T20:15:48.311Z,5.32
2023-03-27T20:18:39.075Z,1.83
2023-03-27T20:21:27.846Z,0.43
2023-03-27T20:24:20.812Z,1.77
2023-03-27T20:27:09.429Z,0.10
2023-03-27T20:29:58.415Z,2.45
2023-03-27T20:32:47.200Z,0.45
2023-03-27T20:35:37.897Z,0.82
2023-03-27T20:38:31.436Z,2.38
2023-03-27T20:41:21.856Z,4.78
2023-03-27T20:44:15.281Z,0.35
2023-03-27T20:47:10.848Z,2.72
2023-03-27T20:50:05.769Z,3.85
2023-03-27T20:52:59.962Z,2.00
2023-03-27T20:55:59.271Z,1.05
2023-03-27T20:58:50.200Z,1.75
2023-03-27T21:01:38.792Z,0.73
2023-03-27T21:04:28.402Z,0.32
2023-03-27T21:07:17.285Z,0.50
2023-03-27T21:10:10.122Z,0.85
2023-03-27T21:12:59.741Z,0.57
2023-03-27T21:15:48.382Z,6.40
2023-03-27T21:18:37.073Z,0.65
2023-03-27T21:21:26.668Z,0.60
2023-03-27T21:24:15.909Z,0.28
2023-03-27T21:27:06.399Z,1.23
2023-03-27T21:29:54.979Z,0.20
2023-03-27T21:32:43.712Z,0.70
2023-03-27T21:35:32.306Z,1.52
2023-03-27T21:38:30.521Z,0.10
2023-03-27T21:41:19.520Z,0.15
2023-03-27T21:44:10.523Z,0.10
2023-03-27T21:46:59.287Z,2.08
2023-03-27T21:49:47.852Z,1.48
2023-03-27T21:52:36.469Z,0.25
2023-03-27T21:55:25.355Z,1.15
2023-03-27T21:58:14.338Z,0.73
2023-03-27T22:01:06.142Z,1.75
2023-03-27T22:03:59.667Z,0.73
2023-03-27T22:06:52.308Z,0.73
2023-03-27T22:09:42.060Z,0.38
2023-03-27T22:12:35.185Z,0.10
2023-03-27T22:15:27.527Z,0.55
2023-03-27T22:18:19.882Z,1.42
2023-03-27T22:21:17.517Z,1.02
2023-03-27T22:24:07.506Z,1.75
2023-03-27T22:26:59.851Z,1.45
2023-03-27T22:29:49.577Z,1.13
2023-03-27T22:32:39.042Z,0.20
2023-03-27T22:35:30.404Z,1.80
2023-03-27T22:38:19.098Z,0.10
2023-03-27T22:41:08.870Z,2.58
2023-03-27T22:43:57.690Z,0.20
2023-03-27T22:46:46.478Z,1.00
2023-03-27T22:49:36.161Z,0.20
2023-03-27T22:52:27.681Z,0.25
2023-03-27T22:55:16.371Z,0.63
2023-03-27T22:58:05.059Z,0.20
2023-03-27T23:00:57.092Z,1.25
2023-03-27T23:03:46.078Z,0.10
2023-03-27T23:06:34.761Z,0.40
2023-03-27T23:09:24.777Z,0.32
2023-03-27T23:12:13.469Z,0.20
2023-03-27T23:15:02.139Z,1.55
2023-03-27T23:17:50.994Z,1.15
2023-03-27T23:20:40.887Z,5.15
2023-03-27T23:23:30.686Z,0.10
2023-03-27T23:26:21.355Z,0.90
2023-03-27T23:29:10.441Z,2.28
2023-03-27T23:31:59.290Z,0.22
2023-03-27T23:34:47.944Z,2.78
2023-03-27T23:37:36.561Z,0.65
2023-03-27T23:40:25.308Z,0.00
2023-03-27T23:43:15.379Z,0.40
2023-03-27T23:46:05.450Z,0.38
2023-03-27T23:48:54.025Z,1.00
2023-03-27T23:51:42.663Z,0.50
2023-03-27T23:54:31.263Z,0.13
2023-03-27T23:57:19.977Z,0.32
